sensor_id;sensor_type;location;lat;lon;timestamp;temperature;humidity
15707;DHT22;7953;54.302;10.128;2023-06-19T00:01:58;18.10;99.90
15707;DHT22;7953;54.302;10.128;2023-06-19T00:04:24;18.10;99.90
15707;DHT22;7953;54.302;10.128;2023-06-19T00:06:52;18.00;99.90
15707;DHT22;7953;54.302;10.128;2023-06-19T00:09:19;18.00;99.90
15707;DHT22;7953;54.302;10.128;2023-06-19T00:11:46;18.00;99.90
15707;DHT22;7953;54.302;10.128;2023-06-19T00:14:13;17.90;99.90
15707;DHT22;7953;54.302;10.128;2023-06-19T00:16:41;17.90;99.90
15707;DHT22;7953;54.302;10.128;2023-06-19T00:19:09;17.80;99.90
15707;DHT22;7953;54.302;10.128;2023-06-19T00:21:37;17.80;99.90
15707;DHT22;7953;54.302;10.128;2023-06-19T00:24:04;17.80;99.90
15707;DHT22;7953;54.302;10.128;2023-06-19T00:26:31;17.80;99.90
15707;DHT22;7953;54.302;10.128;2023-06-19T00:28:58;17.80;99.90
15707;DHT22;7953;54.302;10.128;2023-06-19T00:31:25;17.70;99.90
15707;DHT22;7953;54.302;10.128;2023-06-19T00:33:54;17.70;99.90
15707;DHT22;7953;54.302;10.128;2023-06-19T00:36:21;17.70;99.90
15707;DHT22;7953;54.302;10.128;2023-06-19T00:38:51;17.70;99.90
15707;DHT22;7953;54.302;10.128;2023-06-19T00:41:18;17.60;99.90
15707;DHT22;7953;54.302;10.128;2023-06-19T00:43:46;17.60;99.90
15707;DHT22;7953;54.302;10.128;2023-06-19T00:46:13;17.60;99.90
15707;DHT22;7953;54.302;10.128;2023-06-19T00:48:40;17.60;99.90
15707;DHT22;7953;54.302;10.128;2023-06-19T00:51:08;17.60;99.90
15707;DHT22;7953;54.302;10.128;2023-06-19T00:53:35;17.60;99.90
15707;DHT22;7953;54.302;10.128;2023-06-19T00:56:03;17.50;99.90
15707;DHT22;7953;54.302;10.128;2023-06-19T00:58:31;17.50;99.90
15707;DHT22;7953;54.302;10.128;2023-06-19T01:00:58;17.50;99.90
15707;DHT22;7953;54.302;10.128;2023-06-19T01:03:25;17.50;99.90
15707;DHT22;7953;54.302;10.128;2023-06-19T01:05:53;17.50;99.90
15707;DHT22;7953;54.302;10.128;2023-06-19T01:08:37;17.50;99.90
15707;DHT22;7953;54.302;10.128;2023-06-19T01:11:09;17.50;99.90
15707;DHT22;7953;54.302;10.128;2023-06-19T01:13:43;17.40;99.90
15707;DHT22;7953;54.302;10.128;2023-06-19T01:16:11;17.40;99.90
15707;DHT22;7953;54.302;10.128;2023-06-19T01:18:38;17.40;99.90
15707;DHT22;7953;54.302;10.128;2023-06-19T01:21:10;17.40;99.90
15707;DHT22;7953;54.302;10.128;2023-06-19T01:23:39;17.40;99.90
15707;DHT22;7953;54.302;10.128;2023-06-19T01:26:06;17.40;99.90
15707;DHT22;7953;54.302;10.128;2023-06-19T01:28:34;17.40;99.90
15707;DHT22;7953;54.302;10.128;2023-06-19T01:31:03;17.40;99.90
15707;DHT22;7953;54.302;10.128;2023-06-19T01:33:32;17.40;99.90
15707;DHT22;7953;54.302;10.128;2023-06-19T01:36:00;17.30;99.90
15707;DHT22;7953;54.302;10.128;2023-06-19T01:38:29;17.30;99.90
15707;DHT22;7953;54.302;10.128;2023-06-19T01:40:59;17.30;99.90
15707;DHT22;7953;54.302;10.128;2023-06-19T01:43:29;17.30;99.90
15707;DHT22;7953;54.302;10.128;2023-06-19T01:45:57;17.30;99.90
15707;DHT22;7953;54.302;10.128;2023-06-19T01:48:25;17.30;99.90
15707;DHT22;7953;54.302;10.128;2023-06-19T01:50:52;17.30;99.90
15707;DHT22;7953;54.302;10.128;2023-06-19T01:53:19;17.30;99.90
15707;DHT22;7953;54.302;10.128;2023-06-19T01:55:46;17.30;99.90
15707;DHT22;7953;54.302;10.128;2023-06-19T01:58:14;17.30;99.90
15707;DHT22;7953;54.302;10.128;2023-06-19T02:00:41;17.20;99.90
15707;DHT22;7953;54.302;10.128;2023-06-19T02:03:08;17.20;99.90
15707;DHT22;7953;54.302;10.128;2023-06-19T02:05:35;17.30;99.90
15707;DHT22;7953;54.302;10.128;2023-06-19T02:08:05;17.30;99.90
15707;DHT22;7953;54.302;10.128;2023-06-19T02:10:32;17.20;99.90
15707;DHT22;7953;54.302;10.128;2023-06-19T02:12:59;17.20;99.90
15707;DHT22;7953;54.302;10.128;2023-06-19T02:15:27;17.20;99.90
15707;DHT22;7953;54.302;10.128;2023-06-19T02:17:55;17.20;99.90
15707;DHT22;7953;54.302;10.128;2023-06-19T02:20:22;17.20;99.90
15707;DHT22;7953;54.302;10.128;2023-06-19T02:22:50;17.10;99.90
15707;DHT22;7953;54.302;10.128;2023-06-19T02:25:17;17.10;99.90
15707;DHT22;7953;54.302;10.128;2023-06-19T02:27:45;17.10;99.90
15707;DHT22;7953;54.302;10.128;2023-06-19T02:30:12;17.10;99.90
15707;DHT22;7953;54.302;10.128;2023-06-19T02:32:40;17.10;99.90
15707;DHT22;7953;54.302;10.128;2023-06-19T02:35:09;17.10;99.90
15707;DHT22;7953;54.302;10.128;2023-06-19T02:37:36;17.10;99.90
15707;DHT22;7953;54.302;10.128;2023-06-19T02:40:03;17.10;99.90
15707;DHT22;7953;54.302;10.128;2023-06-19T02:42:32;17.20;99.90
15707;DHT22;7953;54.302;10.128;2023-06-19T02:44:58;17.20;99.90
15707;DHT22;7953;54.302;10.128;2023-06-19T02:47:29;17.20;99.90
15707;DHT22;7953;54.302;10.128;2023-06-19T02:49:58;17.30;99.90
15707;DHT22;7953;54.302;10.128;2023-06-19T02:52:25;17.40;99.90
15707;DHT22;7953;54.302;10.128;2023-06-19T02:54:52;17.40;99.90
15707;DHT22;7953;54.302;10.128;2023-06-19T02:57:19;17.60;99.90
15707;DHT22;7953;54.302;10.128;2023-06-19T02:59:46;17.60;99.90
15707;DHT22;7953;54.302;10.128;2023-06-19T03:02:13;17.60;99.90
15707;DHT22;7953;54.302;10.128;2023-06-19T03:04:40;17.60;99.90
15707;DHT22;7953;54.302;10.128;2023-06-19T03:07:08;17.60;99.90
15707;DHT22;7953;54.302;10.128;2023-06-19T03:09:36;17.60;99.90
15707;DHT22;7953;54.302;10.128;2023-06-19T03:12:03;17.70;99.90
15707;DHT22;7953;54.302;10.128;2023-06-19T03:14:30;17.70;99.90
15707;DHT22;7953;54.302;10.128;2023-06-19T03:16:57;17.80;99.90
15707;DHT22;7953;54.302;10.128;2023-06-19T03:19:24;17.80;99.90
15707;DHT22;7953;54.302;10.128;2023-06-19T03:21:51;17.90;99.90
15707;DHT22;7953;54.302;10.128;2023-06-19T03:24:19;17.90;99.90
15707;DHT22;7953;54.302;10.128;2023-06-19T03:26:46;18.00;99.90
15707;DHT22;7953;54.302;10.128;2023-06-19T03:29:13;18.00;99.90
15707;DHT22;7953;54.302;10.128;2023-06-19T03:31:40;18.00;99.90
15707;DHT22;7953;54.302;10.128;2023-06-19T03:34:06;18.00;99.90
15707;DHT22;7953;54.302;10.128;2023-06-19T03:36:33;18.00;99.90
15707;DHT22;7953;54.302;10.128;2023-06-19T03:39:00;18.00;99.90
15707;DHT22;7953;54.302;10.128;2023-06-19T03:41:28;18.10;99.90
15707;DHT22;7953;54.302;10.128;2023-06-19T03:43:55;18.00;99.90
15707;DHT22;7953;54.302;10.128;2023-06-19T03:46:22;18.10;99.90
15707;DHT22;7953;54.302;10.128;2023-06-19T03:48:49;18.10;99.90
15707;DHT22;7953;54.302;10.128;2023-06-19T03:51:16;18.10;99.90
15707;DHT22;7953;54.302;10.128;2023-06-19T03:53:42;18.10;99.90
15707;DHT22;7953;54.302;10.128;2023-06-19T03:56:09;18.10;99.90
15707;DHT22;7953;54.302;10.128;2023-06-19T03:58:37;18.20;99.90
15707;DHT22;7953;54.302;10.128;2023-06-19T04:01:04;18.30;99.90
15707;DHT22;7953;54.302;10.128;2023-06-19T04:03:31;18.30;99.90
15707;DHT22;7953;54.302;10.128;2023-06-19T04:05:58;18.30;99.90
15707;DHT22;7953;54.302;10.128;2023-06-19T04:08:25;18.30;99.90
15707;DHT22;7953;54.302;10.128;2023-06-19T04:10:52;18.30;99.90
15707;DHT22;7953;54.302;10.128;2023-06-19T04:13:19;18.30;99.90
15707;DHT22;7953;54.302;10.128;2023-06-19T04:15:47;18.40;99.90
15707;DHT22;7953;54.302;10.128;2023-06-19T04:18:14;18.40;99.90
15707;DHT22;7953;54.302;10.128;2023-06-19T04:20:41;18.50;99.90
15707;DHT22;7953;54.302;10.128;2023-06-19T04:23:08;18.50;99.90
15707;DHT22;7953;54.302;10.128;2023-06-19T04:25:35;18.60;99.90
15707;DHT22;7953;54.302;10.128;2023-06-19T04:28:02;18.50;99.90
15707;DHT22;7953;54.302;10.128;2023-06-19T04:30:29;18.50;99.90
15707;DHT22;7953;54.302;10.128;2023-06-19T04:32:58;18.60;99.90
15707;DHT22;7953;54.302;10.128;2023-06-19T04:35:25;18.60;99.90
15707;DHT22;7953;54.302;10.128;2023-06-19T04:37:53;18.60;99.90
15707;DHT22;7953;54.302;10.128;2023-06-19T04:40:20;18.60;99.90
15707;DHT22;7953;54.302;10.128;2023-06-19T04:42:47;18.70;99.90
15707;DHT22;7953;54.302;10.128;2023-06-19T04:45:14;18.70;99.90
15707;DHT22;7953;54.302;10.128;2023-06-19T04:47:41;18.70;99.90
15707;DHT22;7953;54.302;10.128;2023-06-19T04:50:11;18.80;99.90
15707;DHT22;7953;54.302;10.128;2023-06-19T04:52:38;18.80;99.90
15707;DHT22;7953;54.302;10.128;2023-06-19T04:55:05;18.90;99.90
15707;DHT22;7953;54.302;10.128;2023-06-19T04:57:35;18.90;99.90
15707;DHT22;7953;54.302;10.128;2023-06-19T05:00:02;18.90;99.90
15707;DHT22;7953;54.302;10.128;2023-06-19T05:02:31;18.90;99.90
15707;DHT22;7953;54.302;10.128;2023-06-19T05:04:57;18.90;99.90
15707;DHT22;7953;54.302;10.128;2023-06-19T05:07:30;19.00;99.90
15707;DHT22;7953;54.302;10.128;2023-06-19T05:09:57;19.10;99.90
15707;DHT22;7953;54.302;10.128;2023-06-19T05:12:23;19.00;99.90
15707;DHT22;7953;54.302;10.128;2023-06-19T05:14:50;19.00;99.90
15707;DHT22;7953;54.302;10.128;2023-06-19T05:17:17;19.00;99.90
15707;DHT22;7953;54.302;10.128;2023-06-19T05:19:44;19.10;99.90
15707;DHT22;7953;54.302;10.128;2023-06-19T05:22:11;19.10;99.90
15707;DHT22;7953;54.302;10.128;2023-06-19T05:24:40;19.20;99.90
15707;DHT22;7953;54.302;10.128;2023-06-19T05:27:07;19.20;99.90
15707;DHT22;7953;54.302;10.128;2023-06-19T05:29:33;19.20;99.90
15707;DHT22;7953;54.302;10.128;2023-06-19T05:32:00;19.20;99.90
15707;DHT22;7953;54.302;10.128;2023-06-19T05:34:27;19.20;99.90
15707;DHT22;7953;54.302;10.128;2023-06-19T05:36:54;19.20;99.90
15707;DHT22;7953;54.302;10.128;2023-06-19T05:39:21;19.20;99.90
15707;DHT22;7953;54.302;10.128;2023-06-19T05:41:49;19.30;99.90
15707;DHT22;7953;54.302;10.128;2023-06-19T05:44:16;19.20;99.90
15707;DHT22;7953;54.302;10.128;2023-06-19T05:46:44;19.30;99.90
15707;DHT22;7953;54.302;10.128;2023-06-19T05:49:11;19.20;99.90
15707;DHT22;7953;54.302;10.128;2023-06-19T05:51:38;19.30;99.90
15707;DHT22;7953;54.302;10.128;2023-06-19T05:54:05;19.30;99.90
15707;DHT22;7953;54.302;10.128;2023-06-19T05:56:32;19.40;99.90
15707;DHT22;7953;54.302;10.128;2023-06-19T05:59:01;19.40;99.90
15707;DHT22;7953;54.302;10.128;2023-06-19T06:01:28;19.40;99.90
15707;DHT22;7953;54.302;10.128;2023-06-19T06:03:55;19.40;99.90
15707;DHT22;7953;54.302;10.128;2023-06-19T06:06:23;19.40;99.90
15707;DHT22;7953;54.302;10.128;2023-06-19T06:08:51;19.40;99.90
15707;DHT22;7953;54.302;10.128;2023-06-19T06:11:18;19.40;99.90
15707;DHT22;7953;54.302;10.128;2023-06-19T06:13:45;19.40;99.90
15707;DHT22;7953;54.302;10.128;2023-06-19T06:16:13;19.50;99.90
15707;DHT22;7953;54.302;10.128;2023-06-19T06:18:41;19.50;99.90
15707;DHT22;7953;54.302;10.128;2023-06-19T06:21:08;19.50;99.90
15707;DHT22;7953;54.302;10.128;2023-06-19T06:23:35;19.50;99.90
15707;DHT22;7953;54.302;10.128;2023-06-19T06:26:01;19.60;99.90
15707;DHT22;7953;54.302;10.128;2023-06-19T06:28:28;19.60;99.90
15707;DHT22;7953;54.302;10.128;2023-06-19T06:30:57;19.70;99.90
15707;DHT22;7953;54.302;10.128;2023-06-19T06:33:25;19.70;99.90
15707;DHT22;7953;54.302;10.128;2023-06-19T06:35:55;19.70;99.90
15707;DHT22;7953;54.302;10.128;2023-06-19T06:38:22;19.60;99.90
15707;DHT22;7953;54.302;10.128;2023-06-19T06:40:48;19.60;99.90
15707;DHT22;7953;54.302;10.128;2023-06-19T06:43:16;19.60;99.90
15707;DHT22;7953;54.302;10.128;2023-06-19T06:45:43;19.60;99.90
15707;DHT22;7953;54.302;10.128;2023-06-19T06:48:09;19.70;99.90
15707;DHT22;7953;54.302;10.128;2023-06-19T06:50:38;19.60;99.90
15707;DHT22;7953;54.302;10.128;2023-06-19T06:53:06;19.60;99.90
15707;DHT22;7953;54.302;10.128;2023-06-19T06:55:33;19.70;99.90
15707;DHT22;7953;54.302;10.128;2023-06-19T06:58:00;19.70;99.90
15707;DHT22;7953;54.302;10.128;2023-06-19T07:00:28;19.70;99.90
15707;DHT22;7953;54.302;10.128;2023-06-19T07:02:55;19.80;99.90
15707;DHT22;7953;54.302;10.128;2023-06-19T07:05:22;19.80;99.90
15707;DHT22;7953;54.302;10.128;2023-06-19T07:07:50;19.90;99.90
15707;DHT22;7953;54.302;10.128;2023-06-19T07:10:17;19.90;99.90
15707;DHT22;7953;54.302;10.128;2023-06-19T07:12:45;19.90;99.90
15707;DHT22;7953;54.302;10.128;2023-06-19T07:15:12;20.10;99.90
15707;DHT22;7953;54.302;10.128;2023-06-19T07:17:38;20.10;99.90
15707;DHT22;7953;54.302;10.128;2023-06-19T07:20:06;20.20;99.90
15707;DHT22;7953;54.302;10.128;2023-06-19T07:22:33;20.20;99.90
15707;DHT22;7953;54.302;10.128;2023-06-19T07:25:02;20.20;99.90
15707;DHT22;7953;54.302;10.128;2023-06-19T07:27:29;20.30;99.90
15707;DHT22;7953;54.302;10.128;2023-06-19T07:29:56;20.30;99.90
15707;DHT22;7953;54.302;10.128;2023-06-19T07:32:23;20.30;99.90
15707;DHT22;7953;54.302;10.128;2023-06-19T07:34:50;20.40;99.90
15707;DHT22;7953;54.302;10.128;2023-06-19T07:37:16;20.40;99.90
15707;DHT22;7953;54.302;10.128;2023-06-19T07:39:44;20.50;99.90
15707;DHT22;7953;54.302;10.128;2023-06-19T07:42:13;20.50;99.90
15707;DHT22;7953;54.302;10.128;2023-06-19T07:44:40;20.50;99.90
15707;DHT22;7953;54.302;10.128;2023-06-19T07:47:07;20.40;99.90
15707;DHT22;7953;54.302;10.128;2023-06-19T07:49:34;20.40;99.90
15707;DHT22;7953;54.302;10.128;2023-06-19T07:52:01;20.40;99.90
15707;DHT22;7953;54.302;10.128;2023-06-19T07:54:28;20.30;99.90
15707;DHT22;7953;54.302;10.128;2023-06-19T07:56:55;20.20;99.90
15707;DHT22;7953;54.302;10.128;2023-06-19T07:59:23;20.20;99.90
15707;DHT22;7953;54.302;10.128;2023-06-19T08:01:50;20.20;99.90
15707;DHT22;7953;54.302;10.128;2023-06-19T08:04:17;20.10;99.90
15707;DHT22;7953;54.302;10.128;2023-06-19T08:06:44;20.10;99.90
15707;DHT22;7953;54.302;10.128;2023-06-19T08:09:10;20.10;99.90
15707;DHT22;7953;54.302;10.128;2023-06-19T08:11:37;20.00;99.90
15707;DHT22;7953;54.302;10.128;2023-06-19T08:14:04;20.00;99.90
15707;DHT22;7953;54.302;10.128;2023-06-19T08:16:32;20.00;99.90
15707;DHT22;7953;54.302;10.128;2023-06-19T08:18:59;20.00;99.90
15707;DHT22;7953;54.302;10.128;2023-06-19T08:21:26;19.90;99.90
15707;DHT22;7953;54.302;10.128;2023-06-19T08:23:53;19.90;99.90
15707;DHT22;7953;54.302;10.128;2023-06-19T08:26:20;19.90;99.90
15707;DHT22;7953;54.302;10.128;2023-06-19T08:28:47;19.90;99.90
15707;DHT22;7953;54.302;10.128;2023-06-19T08:31:13;19.80;99.90
15707;DHT22;7953;54.302;10.128;2023-06-19T08:33:42;19.80;99.90
15707;DHT22;7953;54.302;10.128;2023-06-19T08:36:08;19.80;99.90
15707;DHT22;7953;54.302;10.128;2023-06-19T08:38:35;19.70;99.90
15707;DHT22;7953;54.302;10.128;2023-06-19T08:41:03;19.70;99.90
15707;DHT22;7953;54.302;10.128;2023-06-19T08:43:30;19.70;99.90
15707;DHT22;7953;54.302;10.128;2023-06-19T08:46:07;19.70;99.90
15707;DHT22;7953;54.302;10.128;2023-06-19T08:48:35;19.80;99.90
15707;DHT22;7953;54.302;10.128;2023-06-19T08:51:03;19.80;99.90
15707;DHT22;7953;54.302;10.128;2023-06-19T08:53:33;19.80;99.90
15707;DHT22;7953;54.302;10.128;2023-06-19T08:56:00;19.80;99.90
15707;DHT22;7953;54.302;10.128;2023-06-19T08:58:27;19.80;99.90
15707;DHT22;7953;54.302;10.128;2023-06-19T09:00:54;19.90;99.90
15707;DHT22;7953;54.302;10.128;2023-06-19T09:03:21;20.00;99.90
15707;DHT22;7953;54.302;10.128;2023-06-19T09:05:49;20.00;99.90
15707;DHT22;7953;54.302;10.128;2023-06-19T09:08:18;20.20;99.90
15707;DHT22;7953;54.302;10.128;2023-06-19T09:10:55;20.40;99.90
15707;DHT22;7953;54.302;10.128;2023-06-19T09:13:22;20.60;99.90
15707;DHT22;7953;54.302;10.128;2023-06-19T09:15:58;20.80;99.90
15707;DHT22;7953;54.302;10.128;2023-06-19T09:18:25;20.90;99.90
15707;DHT22;7953;54.302;10.128;2023-06-19T09:20:53;21.00;99.90
15707;DHT22;7953;54.302;10.128;2023-06-19T09:23:22;21.00;99.90
15707;DHT22;7953;54.302;10.128;2023-06-19T09:25:50;21.00;99.90
15707;DHT22;7953;54.302;10.128;2023-06-19T09:28:21;21.10;99.90
15707;DHT22;7953;54.302;10.128;2023-06-19T09:30:52;21.10;99.90
15707;DHT22;7953;54.302;10.128;2023-06-19T09:33:19;21.20;99.90
15707;DHT22;7953;54.302;10.128;2023-06-19T09:35:47;21.40;99.90
15707;DHT22;7953;54.302;10.128;2023-06-19T09:38:17;21.80;99.90
15707;DHT22;7953;54.302;10.128;2023-06-19T09:40:47;22.10;99.90
15707;DHT22;7953;54.302;10.128;2023-06-19T09:43:18;22.20;99.90
15707;DHT22;7953;54.302;10.128;2023-06-19T09:45:48;22.30;99.90
15707;DHT22;7953;54.302;10.128;2023-06-19T09:48:19;22.50;99.90
15707;DHT22;7953;54.302;10.128;2023-06-19T09:50:49;23.00;99.90
15707;DHT22;7953;54.302;10.128;2023-06-19T09:53:18;23.30;99.90
15707;DHT22;7953;54.302;10.128;2023-06-19T09:55:48;23.50;99.90
15707;DHT22;7953;54.302;10.128;2023-06-19T09:58:16;23.40;99.90
15707;DHT22;7953;54.302;10.128;2023-06-19T10:00:44;23.60;99.90
15707;DHT22;7953;54.302;10.128;2023-06-19T10:03:12;23.90;99.90
15707;DHT22;7953;54.302;10.128;2023-06-19T10:05:39;24.30;99.90
15707;DHT22;7953;54.302;10.128;2023-06-19T10:08:06;24.60;99.90
15707;DHT22;7953;54.302;10.128;2023-06-19T10:10:34;25.00;99.90
15707;DHT22;7953;54.302;10.128;2023-06-19T10:13:13;25.10;99.90
15707;DHT22;7953;54.302;10.128;2023-06-19T10:15:41;25.30;99.90
15707;DHT22;7953;54.302;10.128;2023-06-19T10:18:13;25.10;99.90
15707;DHT22;7953;54.302;10.128;2023-06-19T10:20:42;25.00;99.90
15707;DHT22;7953;54.302;10.128;2023-06-19T10:23:12;25.00;99.90
15707;DHT22;7953;54.302;10.128;2023-06-19T10:25:42;25.00;99.90
15707;DHT22;7953;54.302;10.128;2023-06-19T10:28:21;25.10;99.90
15707;DHT22;7953;54.302;10.128;2023-06-19T10:30:53;25.00;99.90
15707;DHT22;7953;54.302;10.128;2023-06-19T10:33:20;25.00;99.90
15707;DHT22;7953;54.302;10.128;2023-06-19T10:35:47;25.00;99.90
15707;DHT22;7953;54.302;10.128;2023-06-19T10:38:15;25.10;99.90
15707;DHT22;7953;54.302;10.128;2023-06-19T10:40:42;25.00;99.90
15707;DHT22;7953;54.302;10.128;2023-06-19T10:43:10;25.00;99.90
15707;DHT22;7953;54.302;10.128;2023-06-19T10:45:38;24.90;99.90
15707;DHT22;7953;54.302;10.128;2023-06-19T10:48:05;25.00;99.90
15707;DHT22;7953;54.302;10.128;2023-06-19T10:50:37;25.00;99.90
15707;DHT22;7953;54.302;10.128;2023-06-19T10:53:06;25.20;99.90
15707;DHT22;7953;54.302;10.128;2023-06-19T10:55:33;25.50;99.90
15707;DHT22;7953;54.302;10.128;2023-06-19T10:58:00;25.70;99.90
15707;DHT22;7953;54.302;10.128;2023-06-19T11:00:28;26.00;99.90
15707;DHT22;7953;54.302;10.128;2023-06-19T11:02:57;26.40;99.90
15707;DHT22;7953;54.302;10.128;2023-06-19T11:05:27;26.70;99.90
15707;DHT22;7953;54.302;10.128;2023-06-19T11:07:55;26.90;99.90
15707;DHT22;7953;54.302;10.128;2023-06-19T11:10:24;26.80;99.90
15707;DHT22;7953;54.302;10.128;2023-06-19T11:12:54;26.50;99.90
15707;DHT22;7953;54.302;10.128;2023-06-19T11:15:28;26.30;99.90
15707;DHT22;7953;54.302;10.128;2023-06-19T11:17:56;26.30;99.90
15707;DHT22;7953;54.302;10.128;2023-06-19T11:20:23;26.50;99.90
15707;DHT22;7953;54.302;10.128;2023-06-19T11:22:55;26.70;99.90
15707;DHT22;7953;54.302;10.128;2023-06-19T11:25:23;27.00;99.90
15707;DHT22;7953;54.302;10.128;2023-06-19T11:27:51;27.20;99.90
15707;DHT22;7953;54.302;10.128;2023-06-19T11:30:30;27.40;99.90
15707;DHT22;7953;54.302;10.128;2023-06-19T11:32:59;27.50;99.90
15707;DHT22;7953;54.302;10.128;2023-06-19T11:35:33;27.80;99.90
15707;DHT22;7953;54.302;10.128;2023-06-19T11:38:01;28.30;99.90
15707;DHT22;7953;54.302;10.128;2023-06-19T11:40:28;28.50;99.90
15707;DHT22;7953;54.302;10.128;2023-06-19T11:43:04;28.50;99.90
15707;DHT22;7953;54.302;10.128;2023-06-19T11:45:31;28.80;99.90
15707;DHT22;7953;54.302;10.128;2023-06-19T11:47:59;29.00;99.90
15707;DHT22;7953;54.302;10.128;2023-06-19T11:50:31;29.30;99.90
15707;DHT22;7953;54.302;10.128;2023-06-19T11:52:58;29.10;99.90
15707;DHT22;7953;54.302;10.128;2023-06-19T11:55:25;29.20;99.90
15707;DHT22;7953;54.302;10.128;2023-06-19T11:57:52;28.80;99.90
15707;DHT22;7953;54.302;10.128;2023-06-19T12:00:19;29.00;99.90
15707;DHT22;7953;54.302;10.128;2023-06-19T12:02:46;29.00;99.90
15707;DHT22;7953;54.302;10.128;2023-06-19T12:05:15;29.00;99.90
15707;DHT22;7953;54.302;10.128;2023-06-19T12:07:42;29.20;99.90
15707;DHT22;7953;54.302;10.128;2023-06-19T12:10:10;29.30;99.90
15707;DHT22;7953;54.302;10.128;2023-06-19T12:12:37;29.10;99.90
15707;DHT22;7953;54.302;10.128;2023-06-19T12:15:05;29.20;99.90
15707;DHT22;7953;54.302;10.128;2023-06-19T12:17:32;29.20;99.90
15707;DHT22;7953;54.302;10.128;2023-06-19T12:20:00;29.20;99.90
15707;DHT22;7953;54.302;10.128;2023-06-19T12:22:28;29.20;99.90
15707;DHT22;7953;54.302;10.128;2023-06-19T12:24:55;29.40;99.90
15707;DHT22;7953;54.302;10.128;2023-06-19T12:27:22;29.80;99.90
15707;DHT22;7953;54.302;10.128;2023-06-19T12:29:49;29.90;99.90
15707;DHT22;7953;54.302;10.128;2023-06-19T12:32:16;29.80;99.90
15707;DHT22;7953;54.302;10.128;2023-06-19T12:34:43;29.40;99.90
15707;DHT22;7953;54.302;10.128;2023-06-19T12:37:13;29.40;99.90
15707;DHT22;7953;54.302;10.128;2023-06-19T12:39:41;30.00;99.90
15707;DHT22;7953;54.302;10.128;2023-06-19T12:42:08;30.30;99.90
15707;DHT22;7953;54.302;10.128;2023-06-19T12:44:37;30.40;99.90
15707;DHT22;7953;54.302;10.128;2023-06-19T12:47:05;30.20;99.90
15707;DHT22;7953;54.302;10.128;2023-06-19T12:49:32;30.00;99.90
15707;DHT22;7953;54.302;10.128;2023-06-19T12:51:59;29.80;99.90
15707;DHT22;7953;54.302;10.128;2023-06-19T12:54:26;29.60;99.90
15707;DHT22;7953;54.302;10.128;2023-06-19T12:56:55;29.50;99.90
15707;DHT22;7953;54.302;10.128;2023-06-19T12:59:22;29.20;99.90
15707;DHT22;7953;54.302;10.128;2023-06-19T13:01:49;29.10;99.90
15707;DHT22;7953;54.302;10.128;2023-06-19T13:04:15;29.20;99.90
15707;DHT22;7953;54.302;10.128;2023-06-19T13:06:42;29.30;99.90
15707;DHT22;7953;54.302;10.128;2023-06-19T13:09:09;29.10;99.90
15707;DHT22;7953;54.302;10.128;2023-06-19T13:11:36;29.10;99.90
15707;DHT22;7953;54.302;10.128;2023-06-19T13:14:05;29.20;99.90
15707;DHT22;7953;54.302;10.128;2023-06-19T13:16:32;29.40;99.90
15707;DHT22;7953;54.302;10.128;2023-06-19T13:18:59;29.60;99.90
15707;DHT22;7953;54.302;10.128;2023-06-19T13:21:25;29.70;99.90
15707;DHT22;7953;54.302;10.128;2023-06-19T13:23:52;29.60;99.90
15707;DHT22;7953;54.302;10.128;2023-06-19T13:26:19;29.60;99.90
15707;DHT22;7953;54.302;10.128;2023-06-19T13:28:46;29.40;99.90
15707;DHT22;7953;54.302;10.128;2023-06-19T13:31:14;29.40;99.90
15707;DHT22;7953;54.302;10.128;2023-06-19T13:33:41;29.10;99.90
15707;DHT22;7953;54.302;10.128;2023-06-19T13:36:08;29.10;99.90
15707;DHT22;7953;54.302;10.128;2023-06-19T13:38:35;29.00;99.90
15707;DHT22;7953;54.302;10.128;2023-06-19T13:41:02;28.90;99.90
15707;DHT22;7953;54.302;10.128;2023-06-19T13:43:31;28.90;99.90
15707;DHT22;7953;54.302;10.128;2023-06-19T13:45:59;28.90;99.90
15707;DHT22;7953;54.302;10.128;2023-06-19T13:48:27;29.10;99.90
15707;DHT22;7953;54.302;10.128;2023-06-19T13:50:54;29.40;99.90
15707;DHT22;7953;54.302;10.128;2023-06-19T13:53:23;29.60;99.90
15707;DHT22;7953;54.302;10.128;2023-06-19T13:55:50;29.60;99.90
15707;DHT22;7953;54.302;10.128;2023-06-19T13:58:16;29.70;99.90
15707;DHT22;7953;54.302;10.128;2023-06-19T14:00:43;29.80;99.90
15707;DHT22;7953;54.302;10.128;2023-06-19T14:03:10;29.90;99.90
15707;DHT22;7953;54.302;10.128;2023-06-19T14:05:38;29.90;99.90
15707;DHT22;7953;54.302;10.128;2023-06-19T14:08:05;30.00;99.90
15707;DHT22;7953;54.302;10.128;2023-06-19T14:10:32;30.10;99.90
15707;DHT22;7953;54.302;10.128;2023-06-19T14:12:59;30.20;99.90
15707;DHT22;7953;54.302;10.128;2023-06-19T14:15:26;30.40;99.90
15707;DHT22;7953;54.302;10.128;2023-06-19T14:17:53;30.30;99.90
15707;DHT22;7953;54.302;10.128;2023-06-19T14:20:20;29.80;99.90
15707;DHT22;7953;54.302;10.128;2023-06-19T14:22:48;29.20;99.90
15707;DHT22;7953;54.302;10.128;2023-06-19T14:25:15;29.00;99.90
15707;DHT22;7953;54.302;10.128;2023-06-19T14:27:42;29.00;99.90
15707;DHT22;7953;54.302;10.128;2023-06-19T14:30:09;29.00;99.90
15707;DHT22;7953;54.302;10.128;2023-06-19T14:32:36;28.70;99.90
15707;DHT22;7953;54.302;10.128;2023-06-19T14:35:04;28.80;99.90
15707;DHT22;7953;54.302;10.128;2023-06-19T14:37:31;28.90;99.90
15707;DHT22;7953;54.302;10.128;2023-06-19T14:39:59;28.90;99.90
15707;DHT22;7953;54.302;10.128;2023-06-19T14:42:26;29.10;99.90
15707;DHT22;7953;54.302;10.128;2023-06-19T14:44:53;29.00;99.90
15707;DHT22;7953;54.302;10.128;2023-06-19T14:47:20;28.50;99.90
15707;DHT22;7953;54.302;10.128;2023-06-19T14:49:46;28.50;99.90
15707;DHT22;7953;54.302;10.128;2023-06-19T14:52:14;28.30;99.90
15707;DHT22;7953;54.302;10.128;2023-06-19T14:54:41;28.00;99.90
15707;DHT22;7953;54.302;10.128;2023-06-19T14:57:10;28.10;99.90
15707;DHT22;7953;54.302;10.128;2023-06-19T14:59:36;28.20;99.90
15707;DHT22;7953;54.302;10.128;2023-06-19T15:02:04;28.20;99.90
15707;DHT22;7953;54.302;10.128;2023-06-19T15:04:32;28.20;99.90
15707;DHT22;7953;54.302;10.128;2023-06-19T15:06:59;28.30;99.90
15707;DHT22;7953;54.302;10.128;2023-06-19T15:09:26;28.50;99.90
15707;DHT22;7953;54.302;10.128;2023-06-19T15:11:53;28.50;99.90
15707;DHT22;7953;54.302;10.128;2023-06-19T15:14:21;28.70;99.90
15707;DHT22;7953;54.302;10.128;2023-06-19T15:16:48;28.80;99.90
15707;DHT22;7953;54.302;10.128;2023-06-19T15:19:15;28.80;99.90
15707;DHT22;7953;54.302;10.128;2023-06-19T15:21:42;28.60;99.90
15707;DHT22;7953;54.302;10.128;2023-06-19T15:24:08;28.60;99.90
15707;DHT22;7953;54.302;10.128;2023-06-19T15:26:35;28.50;99.90
15707;DHT22;7953;54.302;10.128;2023-06-19T15:29:02;28.30;99.90
15707;DHT22;7953;54.302;10.128;2023-06-19T15:31:31;28.00;99.90
15707;DHT22;7953;54.302;10.128;2023-06-19T15:33:57;27.70;99.90